createdAt,value
2023-01-27T00:00:39.055Z,3.53
2023-01-27T00:03:06.636Z,2.60
2023-01-27T00:05:33.952Z,2.78
2023-01-27T00:08:01.198Z,2.88
2023-01-27T00:10:28.547Z,2.20
2023-01-27T00:13:14.470Z,2.97
2023-01-27T00:15:41.782Z,2.77
2023-01-27T00:18:09.153Z,2.60
2023-01-27T00:20:54.971Z,2.50
2023-01-27T00:23:42.505Z,2.72
2023-01-27T00:26:11.582Z,2.70
2023-01-27T00:28:41.299Z,3.10
2023-01-27T00:31:28.954Z,2.53
2023-01-27T00:34:01.883Z,3.00
2023-01-27T00:36:29.757Z,2.95
2023-01-27T00:38:57.049Z,2.85
2023-01-27T00:41:24.599Z,2.63
2023-01-27T00:43:53.263Z,2.33
2023-01-27T00:46:21.735Z,2.60
2023-01-27T00:48:49.155Z,2.42
2023-01-27T00:51:17.520Z,2.92
2023-01-27T00:53:45.208Z,3.13
2023-01-27T00:56:12.588Z,2.38
2023-01-27T00:58:40.069Z,3.20
2023-01-27T01:01:08.827Z,2.67
2023-01-27T01:03:36.795Z,2.35
2023-01-27T01:06:05.819Z,2.60
2023-01-27T01:08:33.964Z,2.95
2023-01-27T01:11:03.200Z,2.50
2023-01-27T01:13:30.457Z,2.88
2023-01-27T01:15:57.944Z,2.72
2023-01-27T01:18:25.499Z,2.97
2023-01-27T01:20:52.747Z,3.20
2023-01-27T01:23:19.978Z,3.80
2023-01-27T01:25:54.562Z,2.85
2023-01-27T01:28:21.934Z,4.00
2023-01-27T01:30:49.281Z,3.60
2023-01-27T01:33:16.988Z,3.42
2023-01-27T01:35:44.483Z,4.70
2023-01-27T01:38:11.819Z,4.25
2023-01-27T01:40:43.251Z,4.82
2023-01-27T01:43:15.255Z,3.97
2023-01-27T01:45:50.457Z,3.80
2023-01-27T01:48:17.735Z,4.18
2023-01-27T01:50:48.530Z,4.10
2023-01-27T01:53:16.130Z,4.50
2023-01-27T01:55:43.594Z,4.17
2023-01-27T01:58:12.698Z,4.30
2023-01-27T02:00:40.444Z,4.70
2023-01-27T02:03:07.760Z,4.50
2023-01-27T02:05:37.031Z,4.60
2023-01-27T02:08:04.324Z,5.30
2023-01-27T02:10:32.876Z,4.65
2023-01-27T02:13:00.137Z,4.80
2023-01-27T02:15:29.879Z,4.28
2023-01-27T02:17:57.197Z,5.20
2023-01-27T02:20:39.998Z,4.73
2023-01-27T02:23:16.610Z,4.70
2023-01-27T02:26:02.905Z,5.07
2023-01-27T02:28:31.155Z,4.13
2023-01-27T02:30:58.885Z,5.05
2023-01-27T02:33:26.410Z,4.47
2023-01-27T02:36:02.001Z,5.00
2023-01-27T02:38:31.871Z,5.35
2023-01-27T02:41:02.595Z,4.55
2023-01-27T02:43:29.895Z,5.63
2023-01-27T02:45:57.316Z,5.13
2023-01-27T02:48:25.177Z,5.70
2023-01-27T02:50:52.535Z,4.85
2023-01-27T02:53:20.057Z,5.43
2023-01-27T02:55:47.416Z,6.07
2023-01-27T02:58:16.392Z,5.70
2023-01-27T03:00:48.491Z,6.00
2023-01-27T03:03:15.886Z,6.80
2023-01-27T03:05:43.202Z,5.97
2023-01-27T03:08:11.037Z,7.90
2023-01-27T03:10:38.361Z,7.07
2023-01-27T03:13:05.657Z,6.50
2023-01-27T03:15:51.685Z,7.43
2023-01-27T03:18:19.205Z,7.55
2023-01-27T03:20:47.683Z,7.63
2023-01-27T03:23:15.967Z,7.60
2023-01-27T03:25:48.741Z,7.05
2023-01-27T03:28:16.208Z,7.45
2023-01-27T03:30:50.108Z,7.00
2023-01-27T03:33:28.289Z,8.15
2023-01-27T03:36:22.204Z,7.70
2023-01-27T03:39:10.288Z,7.70
2023-01-27T03:41:56.370Z,7.93
2023-01-27T03:44:45.356Z,8.02
2023-01-27T03:47:12.606Z,7.97
2023-01-27T03:49:39.841Z,8.77
2023-01-27T03:52:07.172Z,7.50
2023-01-27T03:54:34.449Z,7.97
2023-01-27T03:57:06.107Z,7.97
2023-01-27T03:59:35.101Z,7.80
2023-01-27T04:02:21.057Z,6.63
2023-01-27T04:05:07.128Z,6.47
2023-01-27T04:07:37.909Z,7.45
2023-01-27T04:10:05.859Z,6.65
2023-01-27T04:12:33.167Z,5.90
2023-01-27T04:15:00.458Z,5.23
2023-01-27T04:17:27.744Z,5.43
2023-01-27T04:19:54.972Z,5.68
2023-01-27T04:22:22.231Z,5.57
2023-01-27T04:24:50.269Z,5.50
2023-01-27T04:27:18.990Z,5.40
2023-01-27T04:29:46.410Z,5.53
2023-01-27T04:32:14.046Z,4.72
2023-01-27T04:34:41.413Z,4.97
2023-01-27T04:37:09.359Z,6.35
2023-01-27T04:39:37.003Z,4.53
2023-01-27T04:42:04.358Z,4.75
2023-01-27T04:44:31.674Z,5.25
2023-01-27T04:46:59.025Z,4.72
2023-01-27T04:49:27.204Z,4.68
2023-01-27T04:51:55.229Z,4.70
2023-01-27T04:54:22.664Z,4.05
2023-01-27T04:56:58.206Z,4.85
2023-01-27T04:59:25.589Z,4.32
2023-01-27T05:01:52.942Z,3.95
2023-01-27T05:04:20.361Z,3.80
2023-01-27T05:06:47.702Z,3.55
2023-01-27T05:09:15.042Z,3.67
2023-01-27T05:11:42.297Z,3.78
2023-01-27T05:14:09.536Z,4.07
2023-01-27T05:16:39.552Z,3.33
2023-01-27T05:19:07.318Z,3.40
2023-01-27T05:21:34.731Z,4.10
2023-01-27T05:24:02.810Z,3.75
2023-01-27T05:26:30.041Z,3.38
2023-01-27T05:28:58.069Z,3.30
2023-01-27T05:31:26.753Z,3.35
2023-01-27T05:33:55.165Z,3.38
2023-01-27T05:36:23.278Z,3.03
2023-01-27T05:38:50.629Z,3.15
2023-01-27T05:41:18.900Z,3.33
2023-01-27T05:43:46.849Z,3.60
2023-01-27T05:46:15.785Z,3.97
2023-01-27T05:48:44.226Z,3.47
2023-01-27T05:51:14.565Z,3.65
2023-01-27T05:53:42.313Z,3.33
2023-01-27T05:56:10.636Z,3.30
2023-01-27T05:58:38.621Z,3.53
2023-01-27T06:01:09.088Z,3.40
2023-01-27T06:03:36.461Z,3.72
2023-01-27T06:06:04.163Z,3.60
2023-01-27T06:08:31.727Z,3.55
2023-01-27T06:10:59.281Z,3.17
2023-01-27T06:13:26.577Z,3.38
2023-01-27T06:15:56.174Z,3.83
2023-01-27T06:18:24.964Z,11.07
2023-01-27T06:20:52.234Z,7.93
2023-01-27T06:23:19.622Z,6.85
2023-01-27T06:25:49.388Z,9.48
2023-01-27T06:28:28.638Z,4.88
2023-01-27T06:30:57.372Z,4.77
2023-01-27T06:33:24.685Z,3.60
2023-01-27T06:35:51.880Z,3.70
2023-01-27T06:38:19.114Z,4.88
2023-01-27T06:40:46.392Z,4.43
2023-01-27T06:43:14.064Z,6.03
2023-01-27T06:45:41.495Z,5.18
2023-01-27T06:48:09.057Z,6.60
2023-01-27T06:50:37.185Z,4.07
2023-01-27T06:53:05.965Z,3.38
2023-01-27T06:55:33.711Z,3.10
2023-01-27T06:58:02.344Z,2.95
2023-01-27T07:00:30.226Z,2.97
2023-01-27T07:02:57.635Z,3.38
2023-01-27T07:05:25.421Z,3.42
2023-01-27T07:07:52.834Z,3.30
2023-01-27T07:10:20.191Z,3.55
2023-01-27T07:12:47.481Z,3.05
2023-01-27T07:15:14.811Z,3.45
2023-01-27T07:17:42.261Z,9.05
2023-01-27T07:20:12.625Z,4.50
2023-01-27T07:22:40.079Z,3.20
2023-01-27T07:25:07.652Z,4.47
2023-01-27T07:27:35.071Z,3.58
2023-01-27T07:30:02.325Z,3.25
2023-01-27T07:32:29.668Z,3.00
2023-01-27T07:34:56.918Z,3.70
2023-01-27T07:37:24.301Z,3.55
2023-01-27T07:39:51.596Z,3.13
2023-01-27T07:42:18.794Z,3.60
2023-01-27T07:44:46.167Z,3.00
2023-01-27T07:47:13.400Z,2.90
2023-01-27T07:49:40.649Z,3.33
2023-01-27T07:52:07.866Z,2.60
2023-01-27T07:54:35.166Z,2.83
2023-01-27T07:57:02.592Z,3.20
2023-01-27T07:59:29.860Z,2.88
2023-01-27T08:01:57.171Z,3.50
2023-01-27T08:04:24.459Z,2.83
2023-01-27T08:06:51.776Z,3.33
2023-01-27T08:09:19.072Z,2.83
2023-01-27T08:11:46.379Z,3.20
2023-01-27T08:14:13.705Z,3.38
2023-01-27T08:16:40.976Z,3.08
2023-01-27T08:19:08.294Z,3.42
2023-01-27T08:21:35.540Z,3.00
2023-01-27T08:24:02.899Z,3.20
2023-01-27T08:26:30.245Z,3.45
2023-01-27T08:28:57.709Z,2.58
2023-01-27T08:31:25.165Z,3.17
2023-01-27T08:33:53.539Z,2.50
2023-01-27T08:36:21.383Z,3.03
2023-01-27T08:38:51.482Z,3.03
2023-01-27T08:41:20.720Z,2.72
2023-01-27T08:43:48.062Z,3.38
2023-01-27T08:46:15.937Z,4.00
2023-01-27T08:48:43.374Z,5.63
2023-01-27T08:51:12.288Z,10.00
2023-01-27T08:53:39.949Z,9.73
2023-01-27T08:56:08.788Z,9.25
2023-01-27T08:58:36.265Z,6.57
2023-01-27T09:01:04.323Z,6.32
2023-01-27T09:03:32.399Z,5.68
2023-01-27T09:05:59.730Z,3.90
2023-01-27T09:08:27.887Z,3.17
2023-01-27T09:10:55.220Z,2.50
2023-01-27T09:13:22.602Z,2.20
2023-01-27T09:15:52.317Z,2.58
2023-01-27T09:18:19.618Z,2.42
2023-01-27T09:20:46.905Z,1.80
2023-01-27T09:23:14.244Z,1.70
2023-01-27T09:25:41.536Z,2.15
2023-01-27T09:28:16.949Z,2.15
2023-01-27T09:30:46.384Z,2.03
2023-01-27T09:33:17.652Z,1.45
2023-01-27T09:35:50.769Z,1.40
2023-01-27T09:38:19.768Z,2.08
2023-01-27T09:40:55.803Z,2.17
2023-01-27T09:43:22.996Z,1.42
2023-01-27T09:45:53.434Z,1.38
2023-01-27T09:48:30.140Z,1.10
2023-01-27T09:51:11.199Z,0.93
2023-01-27T09:53:44.859Z,1.40
2023-01-27T09:56:20.336Z,1.05
2023-01-27T09:59:06.089Z,0.80
2023-01-27T10:01:36.522Z,0.90
2023-01-27T10:04:03.791Z,0.80
2023-01-27T10:06:49.758Z,1.65
2023-01-27T10:09:38.580Z,0.80
2023-01-27T10:12:20.917Z,3.15
2023-01-27T10:14:53.974Z,2.80
2023-01-27T10:17:47.894Z,0.90
2023-01-27T10:20:17.955Z,0.60
2023-01-27T10:22:50.916Z,0.90
2023-01-27T10:25:21.208Z,0.82
2023-01-27T10:27:49.278Z,0.97
2023-01-27T10:30:20.126Z,0.80
2023-01-27T10:32:53.510Z,1.30
2023-01-27T10:35:24.594Z,1.27
2023-01-27T10:38:09.035Z,1.75
2023-01-27T10:40:53.874Z,1.60
2023-01-27T10:43:24.215Z,1.30
2023-01-27T10:45:51.514Z,2.22
2023-01-27T10:48:39.758Z,2.05
2023-01-27T10:51:10.855Z,1.60
2023-01-27T10:53:52.602Z,1.20
2023-01-27T10:56:29.785Z,1.40
2023-01-27T10:59:15.799Z,1.35
2023-01-27T11:01:48.086Z,2.00
2023-01-27T11:04:35.313Z,2.05
2023-01-27T11:07:04.420Z,1.80
2023-01-27T11:09:34.841Z,1.58
2023-01-27T11:12:04.150Z,1.42
2023-01-27T11:14:43.394Z,1.58
2023-01-27T11:17:20.758Z,2.25
2023-01-27T11:19:51.121Z,2.13
2023-01-27T11:22:21.494Z,1.90
2023-01-27T11:24:53.418Z,2.10
2023-01-27T11:27:26.183Z,2.50
2023-01-27T11:29:56.635Z,2.33
2023-01-27T11:32:39.573Z,1.80
2023-01-27T11:35:11.533Z,2.53
2023-01-27T11:37:52.735Z,2.70
2023-01-27T11:40:27.332Z,2.50
2023-01-27T11:42:56.875Z,2.35
2023-01-27T11:45:24.915Z,2.47
2023-01-27T11:47:55.715Z,2.42
2023-01-27T11:50:24.857Z,2.78
2023-01-27T11:52:56.024Z,2.95
2023-01-27T11:55:27.793Z,2.53
2023-01-27T11:57:58.904Z,2.53
2023-01-27T12:00:27.643Z,2.50
2023-01-27T12:03:06.942Z,3.42
2023-01-27T12:05:41.923Z,2.90
2023-01-27T12:08:09.197Z,3.17
2023-01-27T12:10:42.382Z,2.40
2023-01-27T12:13:10.726Z,2.83
2023-01-27T12:15:38.756Z,3.60
2023-01-27T12:18:13.422Z,3.17
2023-01-27T12:20:47.807Z,3.53
2023-01-27T12:23:24.800Z,2.93
2023-01-27T12:26:12.018Z,3.00
2023-01-27T12:28:39.203Z,2.90
2023-01-27T12:31:06.584Z,2.95
2023-01-27T12:33:34.321Z,3.53
2023-01-27T12:36:02.269Z,3.07
2023-01-27T12:38:32.928Z,3.65
2023-01-27T12:41:02.350Z,3.55
2023-01-27T12:43:29.638Z,3.15
2023-01-27T12:46:23.503Z,2.65
2023-01-27T12:48:52.125Z,3.20
2023-01-27T12:51:23.520Z,3.10
2023-01-27T12:53:51.377Z,2.83
2023-01-27T12:56:21.166Z,2.58
2023-01-27T12:58:57.207Z,2.90
2023-01-27T13:01:32.166Z,3.03
2023-01-27T13:04:10.815Z,2.60
2023-01-27T13:06:54.934Z,3.25
2023-01-27T13:09:31.932Z,2.70
2023-01-27T13:12:01.376Z,3.13
2023-01-27T13:14:30.106Z,2.33
2023-01-27T13:17:02.169Z,6.18
2023-01-27T13:19:48.618Z,6.50
2023-01-27T13:22:18.861Z,4.07
2023-01-27T13:24:48.090Z,3.13
2023-01-27T13:27:18.011Z,2.30
2023-01-27T13:29:51.004Z,6.70
2023-01-27T13:32:32.932Z,3.67
2023-01-27T13:35:29.778Z,2.65
2023-01-27T13:38:07.355Z,2.55
2023-01-27T13:40:45.246Z,2.00
2023-01-27T13:43:15.587Z,2.42
2023-01-27T13:45:42.802Z,3.15
2023-01-27T13:48:39.680Z,2.97
2023-01-27T13:51:20.561Z,3.45
2023-01-27T13:53:48.732Z,3.23
2023-01-27T13:56:34.801Z,3.70
2023-01-27T13:59:04.981Z,3.20
2023-01-27T14:01:41.617Z,3.30
2023-01-27T14:04:15.016Z,4.00
2023-01-27T14:07:01.322Z,3.23
2023-01-27T14:09:53.604Z,3.00
2023-01-27T14:12:26.886Z,3.15
2023-01-27T14:14:59.273Z,3.60
2023-01-27T14:17:38.814Z,3.10
2023-01-27T14:20:06.059Z,3.23
2023-01-27T14:22:43.215Z,2.80
2023-01-27T14:25:13.276Z,3.75
2023-01-27T14:27:43.606Z,3.00
2023-01-27T14:30:11.187Z,2.70
2023-01-27T14:32:43.502Z,2.97
2023-01-27T14:35:30.264Z,2.65
2023-01-27T14:38:17.121Z,4.22
2023-01-27T14:40:47.384Z,3.20
2023-01-27T14:43:21.043Z,3.20
2023-01-27T14:45:51.712Z,3.93
2023-01-27T14:48:37.594Z,3.00
2023-01-27T14:51:14.168Z,4.32
2023-01-27T14:53:41.485Z,4.82
2023-01-27T14:56:20.865Z,6.05
2023-01-27T14:58:48.176Z,4.70
2023-01-27T15:01:15.518Z,4.88
2023-01-27T15:04:05.176Z,5.82
2023-01-27T15:06:47.368Z,6.10
2023-01-27T15:09:31.389Z,7.85
2023-01-27T15:12:26.040Z,4.90
2023-01-27T15:14:59.406Z,3.47
2023-01-27T15:17:45.533Z,3.05
2023-01-27T15:20:21.829Z,3.30
2023-01-27T15:22:49.147Z,3.60
2023-01-27T15:25:23.945Z,3.07
2023-01-27T15:27:52.613Z,3.55
2023-01-27T15:30:31.067Z,3.80
2023-01-27T15:32:58.711Z,2.60
2023-01-27T15:35:28.029Z,3.42
2023-01-27T15:38:15.618Z,3.00
2023-01-27T15:40:54.893Z,3.72
2023-01-27T15:43:25.384Z,4.07
2023-01-27T15:45:56.794Z,3.67
2023-01-27T15:48:27.263Z,3.60
2023-01-27T15:50:56.021Z,2.90
2023-01-27T15:53:31.988Z,3.25
2023-01-27T15:56:00.180Z,3.90
2023-01-27T15:58:32.829Z,3.95
2023-01-27T16:01:01.267Z,4.00
2023-01-27T16:03:45.081Z,3.37
2023-01-27T16:06:17.449Z,4.57
2023-01-27T16:08:56.975Z,3.40
2023-01-27T16:11:24.786Z,3.40
2023-01-27T16:13:52.433Z,3.40
2023-01-27T16:16:19.760Z,3.70
2023-01-27T16:18:53.683Z,3.65
2023-01-27T16:21:39.734Z,3.03
2023-01-27T16:24:16.509Z,3.50
2023-01-27T16:26:51.283Z,3.92
2023-01-27T16:29:25.221Z,3.47
2023-01-27T16:31:59.858Z,4.30
2023-01-27T16:34:40.622Z,3.42
2023-01-27T16:37:19.814Z,3.75
2023-01-27T16:39:56.330Z,4.95
2023-01-27T16:42:29.210Z,3.83
2023-01-27T16:44:57.917Z,3.90
2023-01-27T16:47:41.176Z,4.88
2023-01-27T16:50:28.426Z,4.03
2023-01-27T16:52:55.649Z,5.15
2023-01-27T16:55:22.971Z,4.47
2023-01-27T16:57:51.112Z,4.22
2023-01-27T17:00:23.047Z,4.85
2023-01-27T17:02:51.603Z,4.47
2023-01-27T17:05:19.467Z,5.43
2023-01-27T17:08:02.300Z,4.50
2023-01-27T17:10:34.753Z,4.25
2023-01-27T17:13:02.565Z,4.38
2023-01-27T17:15:31.024Z,5.30
2023-01-27T17:17:58.744Z,4.88
2023-01-27T17:20:33.595Z,6.30
2023-01-27T17:23:02.838Z,6.00
2023-01-27T17:25:32.606Z,4.75
2023-01-27T17:28:00.883Z,6.90
2023-01-27T17:30:33.969Z,4.97
2023-01-27T17:33:02.556Z,4.23
2023-01-27T17:35:33.023Z,4.35
2023-01-27T17:38:16.854Z,5.03
2023-01-27T17:40:45.911Z,4.15
2023-01-27T17:43:32.787Z,4.70
2023-01-27T17:46:06.308Z,4.43
2023-01-27T17:48:34.988Z,4.03
2023-01-27T17:51:02.282Z,4.03
2023-01-27T17:53:29.810Z,4.60
2023-01-27T17:55:57.273Z,4.90
2023-01-27T17:58:26.364Z,3.80
2023-01-27T18:00:54.668Z,3.63
2023-01-27T18:03:32.833Z,5.20
2023-01-27T18:06:00.177Z,4.82
2023-01-27T18:08:27.480Z,4.65
2023-01-27T18:11:08.717Z,3.97
2023-01-27T18:13:37.132Z,4.78
2023-01-27T18:16:18.026Z,4.60
2023-01-27T18:18:45.962Z,5.45
2023-01-27T18:21:13.151Z,5.10
2023-01-27T18:23:48.114Z,10.87
2023-01-27T18:26:18.440Z,6.75
2023-01-27T18:28:46.496Z,5.18
2023-01-27T18:31:31.259Z,5.00
2023-01-27T18:34:00.133Z,6.05
2023-01-27T18:36:29.700Z,5.83
2023-01-27T18:38:56.949Z,5.60
2023-01-27T18:41:27.391Z,6.82
2023-01-27T18:43:55.121Z,5.68
2023-01-27T18:46:22.687Z,5.90
2023-01-27T18:48:50.041Z,6.13
2023-01-27T18:51:18.750Z,7.93
2023-01-27T18:53:46.192Z,5.30
2023-01-27T18:56:13.543Z,4.82
2023-01-27T18:58:40.827Z,6.50
2023-01-27T19:01:21.270Z,5.37
2023-01-27T19:03:50.786Z,6.60
2023-01-27T19:06:18.307Z,6.75
2023-01-27T19:08:48.753Z,5.03
2023-01-27T19:11:16.460Z,6.60
2023-01-27T19:13:43.980Z,5.30
2023-01-27T19:16:18.444Z,5.40
2023-01-27T19:18:46.195Z,5.55
2023-01-27T19:21:14.523Z,5.57
2023-01-27T19:23:44.497Z,5.55
2023-01-27T19:26:16.775Z,5.53
2023-01-27T19:28:44.496Z,5.50
2023-01-27T19:31:11.877Z,6.43
2023-01-27T19:33:41.663Z,5.50
2023-01-27T19:36:16.546Z,6.30
2023-01-27T19:38:43.825Z,6.20
2023-01-27T19:41:12.427Z,6.18
2023-01-27T19:43:40.935Z,5.65
2023-01-27T19:46:15.092Z,7.25
2023-01-27T19:48:43.061Z,7.00
2023-01-27T19:51:11.869Z,6.50
2023-01-27T19:53:39.212Z,6.60
2023-01-27T19:56:13.915Z,6.10
2023-01-27T19:58:41.204Z,5.55
2023-01-27T20:01:09.540Z,6.30
2023-01-27T20:03:37.002Z,6.27
2023-01-27T20:06:04.387Z,4.40
2023-01-27T20:08:31.859Z,5.05
2023-01-27T20:10:59.331Z,4.82
2023-01-27T20:13:26.655Z,4.97
2023-01-27T20:15:53.973Z,6.13
2023-01-27T20:18:23.787Z,6.50
2023-01-27T20:20:51.240Z,6.85
2023-01-27T20:23:18.708Z,4.88
2023-01-27T20:25:45.948Z,5.18
2023-01-27T20:28:13.240Z,5.73
2023-01-27T20:30:42.119Z,6.50
2023-01-27T20:33:09.359Z,5.75
2023-01-27T20:35:38.231Z,5.32
2023-01-27T20:38:05.811Z,5.70
2023-01-27T20:40:33.100Z,5.10
2023-01-27T20:43:02.067Z,5.47
2023-01-27T20:45:29.435Z,5.82
2023-01-27T20:47:56.725Z,5.00
2023-01-27T20:50:26.158Z,6.22
2023-01-27T20:52:53.903Z,5.23
2023-01-27T20:55:21.150Z,6.28
2023-01-27T20:57:48.485Z,5.95
2023-01-27T21:00:16.714Z,6.30
2023-01-27T21:02:44.014Z,6.50
2023-01-27T21:05:12.244Z,5.50
2023-01-27T21:07:39.755Z,7.28
2023-01-27T21:10:07.416Z,7.80
2023-01-27T21:12:34.761Z,6.93
2023-01-27T21:15:02.007Z,8.30
2023-01-27T21:17:29.315Z,7.13
2023-01-27T21:19:56.613Z,7.05
2023-01-27T21:22:24.004Z,7.28
2023-01-27T21:24:51.305Z,6.60
2023-01-27T21:27:19.194Z,6.22
2023-01-27T21:29:46.443Z,6.97
2023-01-27T21:32:13.686Z,5.82
2023-01-27T21:34:40.976Z,7.00
2023-01-27T21:37:08.239Z,6.15
2023-01-27T21:39:35.567Z,7.03
2023-01-27T21:42:02.831Z,6.50
2023-01-27T21:44:49.199Z,6.03
2023-01-27T21:47:17.658Z,6.18
2023-01-27T21:50:01.131Z,6.78
2023-01-27T21:52:39.272Z,6.90
2023-01-27T21:55:08.234Z,6.83
2023-01-27T21:57:35.793Z,6.32
2023-01-27T22:00:05.188Z,6.90
2023-01-27T22:02:39.298Z,6.82
2023-01-27T22:05:06.906Z,6.57
2023-01-27T22:07:38.153Z,6.40
2023-01-27T22:10:06.931Z,6.50
2023-01-27T22:12:34.343Z,7.00
2023-01-27T22:15:01.684Z,6.07
2023-01-27T22:17:28.997Z,6.70
2023-01-27T22:19:56.297Z,6.83
2023-01-27T22:22:23.587Z,6.93
2023-01-27T22:24:50.853Z,6.05
2023-01-27T22:27:18.096Z,6.18
2023-01-27T22:29:45.333Z,6.20
2023-01-27T22:32:12.730Z,5.73
2023-01-27T22:34:40.154Z,6.00
2023-01-27T22:37:07.505Z,5.82
2023-01-27T22:39:34.761Z,6.03
2023-01-27T22:42:02.086Z,5.70
2023-01-27T22:44:29.277Z,6.27
2023-01-27T22:46:56.608Z,6.43
2023-01-27T22:49:23.884Z,6.63
2023-01-27T22:51:51.208Z,6.63
2023-01-27T22:54:18.443Z,6.28
2023-01-27T22:56:45.725Z,6.20
2023-01-27T22:59:13.195Z,5.85
2023-01-27T23:01:40.905Z,6.97
2023-01-27T23:04:08.177Z,6.10
2023-01-27T23:06:35.424Z,6.20
2023-01-27T23:09:02.674Z,5.83
2023-01-27T23:11:30.054Z,6.18
2023-01-27T23:13:57.409Z,6.65
2023-01-27T23:16:24.667Z,5.82
2023-01-27T23:18:52.027Z,6.07
2023-01-27T23:21:19.296Z,5.90
2023-01-27T23:23:46.560Z,5.43
2023-01-27T23:26:14.542Z,7.07
2023-01-27T23:28:41.761Z,5.78
2023-01-27T23:31:13.206Z,6.57
2023-01-27T23:33:41.198Z,6.00
2023-01-27T23:36:09.209Z,6.00
2023-01-27T23:38:36.998Z,6.30
2023-01-27T23:41:09.021Z,6.03
2023-01-27T23:43:36.225Z,5.85
2023-01-27T23:46:03.569Z,5.97
2023-01-27T23:48:31.021Z,6.00
2023-01-27T23:50:58.307Z,6.57
2023-01-27T23:53:25.593Z,7.32
2023-01-27T23:55:59.430Z,6.43
2023-01-27T23:58:27.390Z,6.27
